createdAt,value
2023-04-29T00:01:14.220Z,24.33
2023-04-29T00:04:03.436Z,25.57
2023-04-29T00:06:52.535Z,28.53
2023-04-29T00:09:42.811Z,27.67
2023-04-29T00:12:32.435Z,24.30
2023-04-29T00:15:21.959Z,26.60
2023-04-29T00:18:11.176Z,27.47
2023-04-29T00:21:00.161Z,26.67
2023-04-29T00:23:48.967Z,26.30
2023-04-29T00:26:39.131Z,25.83
2023-04-29T00:29:28.017Z,26.47
2023-04-29T00:32:16.988Z,26.57
2023-04-29T00:35:06.764Z,27.60
2023-04-29T00:37:55.797Z,26.67
2023-04-29T00:40:45.336Z,28.40
2023-04-29T00:43:35.785Z,29.10
2023-04-29T00:46:24.596Z,33.67
2023-04-29T00:49:16.164Z,29.37
2023-04-29T00:52:05.234Z,32.57
2023-04-29T00:54:54.644Z,35.00
2023-04-29T00:57:43.768Z,31.97
2023-04-29T01:00:35.014Z,30.23
2023-04-29T01:03:24.347Z,33.40
2023-04-29T01:06:30.406Z,35.70
2023-04-29T01:09:36.909Z,34.87
2023-04-29T01:12:35.188Z,34.77
2023-04-29T01:15:31.597Z,33.67
2023-04-29T01:18:30.518Z,32.00
2023-04-29T01:21:20.212Z,33.97
2023-04-29T01:24:10.354Z,31.73
2023-04-29T01:27:12.726Z,30.30
2023-04-29T01:30:21.754Z,32.97
2023-04-29T01:33:19.761Z,27.50
2023-04-29T01:36:23.768Z,27.40
2023-04-29T01:39:27.961Z,28.70
2023-04-29T01:42:40.157Z,30.50
2023-04-29T01:45:41.245Z,29.67
2023-04-29T01:48:31.162Z,33.13
2023-04-29T01:51:19.956Z,29.40
2023-04-29T01:54:08.890Z,31.10
2023-04-29T01:56:59.562Z,33.50
2023-04-29T01:59:53.100Z,30.43
2023-04-29T02:03:00.797Z,28.20
2023-04-29T02:05:59.307Z,29.87
2023-04-29T02:08:49.135Z,28.30
2023-04-29T02:11:39.146Z,27.53
2023-04-29T02:14:30.580Z,28.77
2023-04-29T02:17:19.733Z,28.00
2023-04-29T02:20:10.870Z,29.37
2023-04-29T02:22:59.891Z,26.97
2023-04-29T02:25:49.337Z,30.30
2023-04-29T02:28:38.186Z,25.13
2023-04-29T02:31:29.102Z,28.03
2023-04-29T02:34:18.162Z,29.13
2023-04-29T02:37:07.160Z,26.70
2023-04-29T02:39:56.004Z,25.37
2023-04-29T02:42:44.883Z,24.33
2023-04-29T02:45:33.905Z,24.33
2023-04-29T02:48:24.244Z,25.73
2023-04-29T02:51:13.148Z,24.40
2023-04-29T02:54:02.063Z,26.00
2023-04-29T02:56:53.937Z,25.07
2023-04-29T02:59:42.828Z,25.47
2023-04-29T03:02:31.781Z,26.73
2023-04-29T03:05:23.098Z,27.57
2023-04-29T03:08:11.969Z,23.73
2023-04-29T03:11:00.924Z,23.70
2023-04-29T03:13:49.799Z,23.00
2023-04-29T03:16:38.734Z,26.13
2023-04-29T03:19:27.700Z,25.53
2023-04-29T03:22:18.370Z,25.97
2023-04-29T03:25:10.643Z,24.90
2023-04-29T03:28:01.173Z,24.00
2023-04-29T03:30:50.010Z,26.37
2023-04-29T03:33:38.836Z,25.83
2023-04-29T03:36:27.936Z,26.00
2023-04-29T03:39:28.241Z,27.20
2023-04-29T03:42:17.130Z,27.87
2023-04-29T03:45:08.276Z,27.07
2023-04-29T03:47:57.258Z,24.20
2023-04-29T03:50:46.326Z,26.87
2023-04-29T03:53:35.136Z,26.80
2023-04-29T03:56:27.071Z,25.67
2023-04-29T03:59:16.208Z,24.23
2023-04-29T04:02:05.426Z,24.50
2023-04-29T04:04:55.239Z,24.97
2023-04-29T04:07:44.276Z,25.50
2023-04-29T04:10:53.611Z,25.87
2023-04-29T04:13:56.863Z,24.33
2023-04-29T04:16:46.365Z,24.90
2023-04-29T04:19:35.678Z,22.87
2023-04-29T04:22:24.555Z,24.17
2023-04-29T04:25:30.463Z,24.50
2023-04-29T04:28:29.796Z,22.70
2023-04-29T04:31:25.565Z,23.33
2023-04-29T04:34:14.502Z,23.83
2023-04-29T04:37:05.022Z,24.13
2023-04-29T04:39:54.767Z,23.97
2023-04-29T04:42:43.959Z,23.37
2023-04-29T04:45:36.764Z,21.70
2023-04-29T04:48:27.564Z,22.27
2023-04-29T04:51:16.773Z,20.83
2023-04-29T04:54:05.713Z,22.30
2023-04-29T04:56:55.003Z,22.37
2023-04-29T04:59:44.442Z,21.57
2023-04-29T05:02:38.258Z,21.50
2023-04-29T05:05:28.968Z,23.20
2023-04-29T05:08:18.532Z,22.30
2023-04-29T05:11:18.775Z,23.87
2023-04-29T05:14:13.229Z,25.97
2023-04-29T05:17:02.250Z,27.13
2023-04-29T05:19:51.514Z,33.77
2023-04-29T05:22:42.155Z,32.03
2023-04-29T05:25:31.213Z,29.23
2023-04-29T05:28:20.468Z,28.23
2023-04-29T05:31:09.580Z,28.97
2023-04-29T05:33:58.535Z,28.47
2023-04-29T05:36:47.871Z,43.93
2023-04-29T05:39:38.123Z,38.40
2023-04-29T05:42:33.670Z,25.37
2023-04-29T05:45:23.589Z,24.53
2023-04-29T05:48:12.539Z,21.50
2023-04-29T05:51:01.451Z,23.07
2023-04-29T05:53:50.914Z,27.40
2023-04-29T05:56:42.321Z,26.17
2023-04-29T05:59:33.035Z,28.03
2023-04-29T06:02:26.671Z,22.53
2023-04-29T06:05:16.481Z,21.43
2023-04-29T06:08:30.582Z,17.37
2023-04-29T06:11:38.890Z,17.83
2023-04-29T06:14:29.083Z,17.43
2023-04-29T06:17:18.320Z,16.23
2023-04-29T06:20:09.282Z,16.13
2023-04-29T06:22:58.212Z,15.03
2023-04-29T06:25:47.151Z,16.40
2023-04-29T06:28:37.645Z,13.80
2023-04-29T06:31:28.385Z,16.30
2023-04-29T06:34:21.865Z,15.60
2023-04-29T06:37:29.863Z,14.93
2023-04-29T06:40:37.600Z,14.33
2023-04-29T06:43:43.233Z,14.70
2023-04-29T06:46:59.480Z,13.63
2023-04-29T06:50:01.596Z,12.90
2023-04-29T06:52:50.589Z,12.33
2023-04-29T06:55:39.538Z,11.23
2023-04-29T06:58:28.638Z,9.83
2023-04-29T07:01:17.801Z,11.20
2023-04-29T07:04:08.411Z,10.07
2023-04-29T07:06:59.054Z,10.30
2023-04-29T07:09:52.001Z,11.93
2023-04-29T07:12:42.641Z,11.30
2023-04-29T07:15:35.345Z,13.33
2023-04-29T07:18:27.356Z,9.27
2023-04-29T07:21:17.715Z,7.87
2023-04-29T07:24:07.557Z,8.70
2023-04-29T07:26:57.323Z,10.10
2023-04-29T07:29:46.301Z,6.67
2023-04-29T07:32:35.530Z,6.97
2023-04-29T07:35:26.425Z,6.37
2023-04-29T07:38:17.000Z,5.47
2023-04-29T07:41:06.411Z,5.10
2023-04-29T07:43:56.041Z,4.80
2023-04-29T07:46:45.289Z,4.43
2023-04-29T07:49:35.541Z,4.00
2023-04-29T07:52:24.625Z,3.23
2023-04-29T07:55:15.249Z,3.50
2023-04-29T07:58:04.420Z,3.20
2023-04-29T08:00:53.398Z,2.60
2023-04-29T08:03:42.539Z,6.57
2023-04-29T08:06:34.128Z,7.53
2023-04-29T08:09:23.229Z,7.10
2023-04-29T08:12:13.668Z,6.33
2023-04-29T08:15:03.601Z,7.20
2023-04-29T08:17:54.325Z,5.53
2023-04-29T08:20:43.357Z,6.67
2023-04-29T08:23:32.969Z,5.97
2023-04-29T08:26:24.034Z,4.90
2023-04-29T08:29:16.214Z,6.00
2023-04-29T08:32:06.113Z,4.77
2023-04-29T08:34:55.312Z,4.77
2023-04-29T08:37:44.597Z,4.37
2023-04-29T08:40:36.888Z,4.90
2023-04-29T08:43:27.845Z,4.17
2023-04-29T08:46:20.676Z,4.70
2023-04-29T08:49:10.321Z,4.23
2023-04-29T08:51:59.615Z,4.27
2023-04-29T08:54:48.756Z,4.07
2023-04-29T08:57:40.321Z,3.97
2023-04-29T09:00:31.930Z,3.37
2023-04-29T09:03:30.643Z,2.60
2023-04-29T09:06:21.537Z,2.23
2023-04-29T09:09:14.081Z,2.23
2023-04-29T09:12:03.342Z,2.20
2023-04-29T09:14:52.713Z,2.37
2023-04-29T09:17:44.388Z,2.47
2023-04-29T09:20:35.093Z,2.30
2023-04-29T09:23:39.271Z,2.47
2023-04-29T09:26:28.921Z,2.63
2023-04-29T09:29:18.456Z,2.80
2023-04-29T09:32:22.779Z,2.90
2023-04-29T09:35:25.478Z,2.80
2023-04-29T09:38:17.705Z,2.90
2023-04-29T09:41:15.776Z,2.93
2023-04-29T09:44:06.864Z,2.90
2023-04-29T09:47:03.313Z,2.60
2023-04-29T09:49:52.582Z,2.87
2023-04-29T09:52:42.905Z,2.47
2023-04-29T09:55:33.209Z,3.23
2023-04-29T09:58:31.583Z,3.00
2023-04-29T10:01:23.488Z,3.20
2023-04-29T10:04:14.880Z,3.07
2023-04-29T10:07:04.012Z,2.87
2023-04-29T10:09:54.454Z,3.37
2023-04-29T10:12:46.791Z,3.57
2023-04-29T10:15:44.448Z,4.20
2023-04-29T10:18:38.674Z,3.23
2023-04-29T10:21:31.486Z,4.33
2023-04-29T10:24:22.706Z,3.63
2023-04-29T10:27:14.433Z,3.60
2023-04-29T10:30:06.010Z,3.53
2023-04-29T10:32:57.894Z,4.13
2023-04-29T10:35:50.014Z,4.30
2023-04-29T10:38:45.986Z,4.33
2023-04-29T10:41:45.777Z,3.77
2023-04-29T10:45:15.927Z,3.67
2023-04-29T10:48:14.633Z,3.70
2023-04-29T10:51:04.551Z,4.37
2023-04-29T10:54:11.065Z,3.70
2023-04-29T10:57:00.136Z,4.33
2023-04-29T10:59:49.155Z,4.83
2023-04-29T11:02:39.011Z,4.87
2023-04-29T11:05:35.618Z,4.10
2023-04-29T11:08:27.203Z,3.73
2023-04-29T11:11:18.521Z,3.73
2023-04-29T11:14:14.155Z,3.90
2023-04-29T11:17:06.066Z,3.97
2023-04-29T11:19:57.467Z,3.60
2023-04-29T11:22:53.675Z,2.80
2023-04-29T11:25:42.706Z,3.30
2023-04-29T11:28:33.255Z,3.50
2023-04-29T11:31:23.546Z,3.37
2023-04-29T11:34:12.775Z,3.27
2023-04-29T11:37:01.827Z,3.23
2023-04-29T11:39:53.282Z,3.10
2023-04-29T11:42:47.646Z,2.93
2023-04-29T11:45:37.893Z,2.60
2023-04-29T11:48:29.752Z,2.70
2023-04-29T11:51:20.872Z,2.60
2023-04-29T11:54:09.993Z,2.90
2023-04-29T11:57:04.862Z,3.00
2023-04-29T11:59:53.884Z,2.80
2023-04-29T12:02:48.167Z,2.40
2023-04-29T12:05:37.304Z,2.97
2023-04-29T12:08:29.257Z,2.47
2023-04-29T12:11:18.512Z,2.77
2023-04-29T12:14:08.758Z,2.63
2023-04-29T12:16:57.798Z,3.20
2023-04-29T12:19:48.151Z,3.23
2023-04-29T12:22:37.959Z,3.40
2023-04-29T12:25:29.434Z,2.80
2023-04-29T12:28:19.379Z,3.03
2023-04-29T12:31:11.939Z,3.10
2023-04-29T12:34:03.200Z,3.00
2023-04-29T12:36:52.202Z,2.80
2023-04-29T12:39:41.075Z,2.80
2023-04-29T12:42:34.882Z,3.00
2023-04-29T12:45:32.764Z,2.90
2023-04-29T12:48:29.343Z,2.33
2023-04-29T12:51:19.285Z,2.20
2023-04-29T12:54:08.793Z,1.93
2023-04-29T12:56:57.927Z,2.50
2023-04-29T12:59:46.770Z,2.10
2023-04-29T13:02:36.781Z,2.50
2023-04-29T13:05:27.299Z,2.20
2023-04-29T13:08:16.050Z,3.10
2023-04-29T13:11:04.976Z,3.30
2023-04-29T13:13:53.902Z,2.80
2023-04-29T13:16:42.765Z,3.10
2023-04-29T13:19:49.731Z,2.50
2023-04-29T13:22:41.739Z,2.20
2023-04-29T13:25:30.661Z,2.60
2023-04-29T13:28:19.649Z,3.20
2023-04-29T13:31:08.584Z,2.50
2023-04-29T13:34:00.692Z,2.70
2023-04-29T13:36:49.679Z,3.20
2023-04-29T13:39:39.994Z,2.00
2023-04-29T13:42:28.996Z,2.70
2023-04-29T13:45:19.557Z,2.33
2023-04-29T13:48:26.015Z,2.70
2023-04-29T13:54:53.316Z,2.33
2023-04-29T14:00:31.902Z,2.70
2023-04-29T14:03:23.329Z,2.60
2023-04-29T14:06:12.301Z,2.40
2023-04-29T14:09:03.673Z,3.20
2023-04-29T14:11:52.859Z,2.90
2023-04-29T14:14:43.203Z,3.23
2023-04-29T14:17:32.149Z,3.33
2023-04-29T14:20:21.364Z,2.80
2023-04-29T14:23:10.538Z,2.53
2023-04-29T14:26:11.584Z,3.10
2023-04-29T14:29:08.609Z,2.43
2023-04-29T14:31:58.934Z,2.90
2023-04-29T14:34:48.523Z,2.87
2023-04-29T14:37:37.443Z,2.27
2023-04-29T14:40:26.983Z,2.13
2023-04-29T14:43:16.192Z,2.30
2023-04-29T14:46:05.765Z,2.47
2023-04-29T14:49:01.214Z,2.50
2023-04-29T14:51:50.289Z,2.97
2023-04-29T14:54:39.393Z,2.03
2023-04-29T14:57:30.781Z,2.70
2023-04-29T15:00:19.857Z,2.70
2023-04-29T15:03:10.624Z,2.73
2023-04-29T15:06:03.677Z,3.20
2023-04-29T15:08:53.095Z,3.50
2023-04-29T15:11:42.098Z,2.50
2023-04-29T15:14:31.046Z,3.00
2023-04-29T15:17:20.772Z,2.80
2023-04-29T15:20:13.680Z,2.40
2023-04-29T15:23:04.801Z,2.37
2023-04-29T15:25:53.992Z,2.30
2023-04-29T15:28:43.307Z,2.53
2023-04-29T15:31:32.237Z,2.43
2023-04-29T15:34:22.131Z,2.20
2023-04-29T15:37:10.927Z,2.17
2023-04-29T15:40:02.161Z,2.40
2023-04-29T15:42:52.530Z,2.20
2023-04-29T15:45:42.179Z,2.10
2023-04-29T15:48:31.132Z,1.90
2023-04-29T15:51:20.281Z,1.90
2023-04-29T15:54:10.135Z,1.90
2023-04-29T15:57:01.146Z,2.90
2023-04-29T15:59:50.125Z,2.43
2023-04-29T16:02:39.034Z,2.33
2023-04-29T16:05:28.039Z,2.30
2023-04-29T16:08:17.016Z,2.00
2023-04-29T16:11:05.930Z,1.90
2023-04-29T16:13:56.458Z,2.20
2023-04-29T16:16:46.058Z,2.53
2023-04-29T16:19:37.075Z,2.10
2023-04-29T16:22:29.079Z,2.07
2023-04-29T16:25:18.196Z,2.10
2023-04-29T16:28:09.834Z,1.87
2023-04-29T16:31:00.148Z,2.30
2023-04-29T16:33:49.441Z,2.10
2023-04-29T16:36:38.560Z,2.97
2023-04-29T16:39:27.833Z,2.80
2023-04-29T16:42:17.501Z,2.27
2023-04-29T16:45:08.157Z,3.07
2023-04-29T16:47:59.289Z,2.10
2023-04-29T16:50:50.896Z,2.50
2023-04-29T16:53:39.753Z,2.53
2023-04-29T16:56:28.589Z,2.53
2023-04-29T16:59:17.376Z,2.87
2023-04-29T17:02:06.879Z,3.90
2023-04-29T17:04:57.318Z,3.00
2023-04-29T17:07:46.908Z,3.13
2023-04-29T17:10:35.682Z,2.70
2023-04-29T17:13:24.573Z,2.70
2023-04-29T17:16:14.295Z,3.03
2023-04-29T17:19:03.563Z,2.80
2023-04-29T17:21:54.192Z,2.50
2023-04-29T17:24:44.903Z,2.10
2023-04-29T17:27:33.845Z,2.90
2023-04-29T17:30:22.851Z,3.43
2023-04-29T17:33:14.622Z,3.17
2023-04-29T17:36:04.814Z,2.70
2023-04-29T17:38:58.132Z,2.63
2023-04-29T17:41:47.877Z,3.60
2023-04-29T17:44:38.017Z,2.87
2023-04-29T17:47:27.299Z,3.77
2023-04-29T17:50:16.202Z,3.10
2023-04-29T17:53:05.067Z,2.50
2023-04-29T17:55:55.301Z,3.13
2023-04-29T17:58:44.070Z,2.87
2023-04-29T18:01:33.255Z,3.60
2023-04-29T18:04:22.278Z,3.23
2023-04-29T18:07:11.338Z,3.40
2023-04-29T18:10:00.261Z,3.37
2023-04-29T18:12:53.044Z,3.27
2023-04-29T18:15:42.857Z,4.10
2023-04-29T18:18:32.289Z,2.80
2023-04-29T18:21:23.101Z,3.63
2023-04-29T18:24:12.640Z,3.60
2023-04-29T18:27:03.352Z,3.40
2023-04-29T18:29:53.854Z,3.60
2023-04-29T18:32:42.939Z,2.77
2023-04-29T18:35:33.177Z,3.43
2023-04-29T18:38:23.989Z,3.00
2023-04-29T18:41:14.112Z,3.70
2023-04-29T18:44:03.163Z,2.93
2023-04-29T18:46:54.625Z,3.07
2023-04-29T18:49:43.609Z,2.80
2023-04-29T18:52:32.535Z,2.67
2023-04-29T18:55:21.778Z,2.40
2023-04-29T18:58:10.776Z,2.20
2023-04-29T19:01:00.079Z,2.80
2023-04-29T19:03:50.552Z,2.77
2023-04-29T19:06:39.647Z,2.10
2023-04-29T19:09:31.521Z,2.40
2023-04-29T19:12:20.431Z,2.07
2023-04-29T19:15:10.544Z,1.93
2023-04-29T19:18:00.585Z,2.43
2023-04-29T19:20:53.572Z,1.77
2023-04-29T19:23:42.722Z,1.60
2023-04-29T19:26:35.017Z,1.83
2023-04-29T19:29:25.040Z,1.90
2023-04-29T19:32:14.002Z,1.60
2023-04-29T19:35:03.924Z,2.03
2023-04-29T19:37:54.815Z,1.80
2023-04-29T19:40:43.844Z,2.20
2023-04-29T19:43:32.883Z,1.90
2023-04-29T19:46:21.915Z,2.30
2023-04-29T19:49:11.894Z,2.00
2023-04-29T19:52:00.884Z,2.33
2023-04-29T19:54:51.091Z,2.20
2023-04-29T19:57:40.082Z,2.67
2023-04-29T20:00:29.053Z,2.90
2023-04-29T20:03:18.097Z,4.00
2023-04-29T20:06:08.795Z,2.90
2023-04-29T20:08:57.832Z,2.77
2023-04-29T20:11:48.207Z,3.80
2023-04-29T20:14:37.024Z,4.40
2023-04-29T20:17:26.430Z,4.80
2023-04-29T20:20:15.484Z,4.20
2023-04-29T20:23:05.537Z,5.07
2023-04-29T20:25:54.565Z,4.20
2023-04-29T20:28:44.817Z,4.70
2023-04-29T20:31:33.837Z,4.13
2023-04-29T20:34:22.983Z,4.67
2023-04-29T20:37:11.790Z,5.77
2023-04-29T20:40:00.797Z,5.37
2023-04-29T20:42:49.661Z,5.70
2023-04-29T20:45:40.058Z,5.57
2023-04-29T20:48:29.529Z,6.03
2023-04-29T20:51:18.473Z,5.53
2023-04-29T20:54:07.542Z,5.37
2023-04-29T20:56:56.579Z,5.40
2023-04-29T20:59:45.844Z,5.50
2023-04-29T21:02:36.177Z,5.20
2023-04-29T21:05:26.439Z,5.23
2023-04-29T21:08:15.613Z,5.70
2023-04-29T21:11:05.185Z,6.37
2023-04-29T21:13:54.129Z,5.73
2023-04-29T21:16:43.474Z,5.27
2023-04-29T21:19:36.040Z,6.53
2023-04-29T21:22:24.918Z,5.60
2023-04-29T21:25:13.797Z,5.23
2023-04-29T21:28:02.912Z,5.27
2023-04-29T21:30:51.857Z,5.30
2023-04-29T21:33:40.648Z,6.27
2023-04-29T21:36:32.042Z,5.90
2023-04-29T21:39:21.009Z,6.23
2023-04-29T21:42:11.177Z,6.67
2023-04-29T21:45:02.667Z,5.50
2023-04-29T21:47:53.092Z,7.13
2023-04-29T21:50:42.797Z,6.67
2023-04-29T21:53:33.132Z,6.33
2023-04-29T21:56:24.431Z,6.57
2023-04-29T21:59:13.537Z,5.17
2023-04-29T22:02:04.199Z,5.90
2023-04-29T22:04:54.518Z,6.53
2023-04-29T22:07:43.483Z,6.50
2023-04-29T22:10:33.933Z,6.10
2023-04-29T22:13:22.918Z,6.43
2023-04-29T22:16:11.872Z,5.77
2023-04-29T22:19:00.892Z,6.47
2023-04-29T22:21:49.670Z,6.40
2023-04-29T22:24:38.846Z,6.90
2023-04-29T22:27:29.087Z,6.37
2023-04-29T22:30:18.574Z,6.10
2023-04-29T22:33:07.396Z,6.27
2023-04-29T22:35:56.491Z,6.57
2023-04-29T22:38:45.596Z,5.67
2023-04-29T22:41:34.687Z,6.90
2023-04-29T22:44:26.182Z,6.23
2023-04-29T22:47:15.432Z,6.93
2023-04-29T22:50:04.396Z,6.73
2023-04-29T22:52:53.358Z,5.90
2023-04-29T22:55:42.357Z,6.37
2023-04-29T22:58:32.578Z,5.50
2023-04-29T23:01:23.034Z,6.03
2023-04-29T23:04:11.967Z,5.50
2023-04-29T23:07:00.770Z,6.10
2023-04-29T23:09:50.047Z,5.40
2023-04-29T23:12:39.131Z,6.07
2023-04-29T23:15:28.477Z,5.97
2023-04-29T23:18:19.593Z,6.80
2023-04-29T23:21:08.425Z,6.20
2023-04-29T23:23:57.321Z,5.90
2023-04-29T23:26:46.165Z,6.50
2023-04-29T23:29:35.514Z,7.17
2023-04-29T23:32:24.935Z,6.50
2023-04-29T23:35:15.244Z,6.10
2023-04-29T23:38:04.081Z,5.50
2023-04-29T23:40:53.219Z,5.53
2023-04-29T23:43:42.158Z,5.37
2023-04-29T23:46:31.392Z,6.30
2023-04-29T23:49:20.339Z,5.70
2023-04-29T23:52:11.225Z,5.13
2023-04-29T23:55:00.031Z,6.27
2023-04-29T23:57:48.943Z,6.00
